sensor_id;sensor_type;location;lat;lon;timestamp;temperature;humidity
3202;DHT22;34843;48.744;8.958;2024-01-10T00:01:07;-6.30;99.90
3202;DHT22;34843;48.744;8.958;2024-01-10T00:03:32;-6.30;99.90
3202;DHT22;34843;48.744;8.958;2024-01-10T00:05:58;-6.30;99.90
3202;DHT22;34843;48.744;8.958;2024-01-10T00:08:23;-6.30;99.90
3202;DHT22;34843;48.744;8.958;2024-01-10T00:10:54;-6.20;99.90
3202;DHT22;34843;48.744;8.958;2024-01-10T00:13:20;-6.20;99.90
3202;DHT22;34843;48.744;8.958;2024-01-10T00:15:47;-6.20;99.90
3202;DHT22;34843;48.744;8.958;2024-01-10T00:18:12;-6.10;99.90
3202;DHT22;34843;48.744;8.958;2024-01-10T00:20:38;-6.10;99.90
3202;DHT22;34843;48.744;8.958;2024-01-10T00:23:05;-6.10;99.90
3202;DHT22;34843;48.744;8.958;2024-01-10T00:25:31;-6.00;99.90
3202;DHT22;34843;48.744;8.958;2024-01-10T00:27:57;-5.90;99.90
3202;DHT22;34843;48.744;8.958;2024-01-10T00:30:22;-5.90;99.90
3202;DHT22;34843;48.744;8.958;2024-01-10T00:32:48;-5.90;99.90
3202;DHT22;34843;48.744;8.958;2024-01-10T00:35:13;-5.80;99.90
3202;DHT22;34843;48.744;8.958;2024-01-10T00:37:39;-5.90;99.90
3202;DHT22;34843;48.744;8.958;2024-01-10T00:40:05;-5.90;99.90
3202;DHT22;34843;48.744;8.958;2024-01-10T00:42:31;-5.90;99.90
3202;DHT22;34843;48.744;8.958;2024-01-10T00:44:56;-5.90;99.90
3202;DHT22;34843;48.744;8.958;2024-01-10T00:47:22;-5.90;99.90
3202;DHT22;34843;48.744;8.958;2024-01-10T00:49:47;-5.90;99.90
3202;DHT22;34843;48.744;8.958;2024-01-10T00:52:13;-5.90;99.90
3202;DHT22;34843;48.744;8.958;2024-01-10T00:54:38;-6.00;99.90
3202;DHT22;34843;48.744;8.958;2024-01-10T00:57:04;-6.00;99.90
3202;DHT22;34843;48.744;8.958;2024-01-10T00:59:29;-5.90;99.90
3202;DHT22;34843;48.744;8.958;2024-01-10T01:01:55;-5.90;99.90
3202;DHT22;34843;48.744;8.958;2024-01-10T01:04:20;-5.90;99.90
3202;DHT22;34843;48.744;8.958;2024-01-10T01:06:46;-5.90;99.90
3202;DHT22;34843;48.744;8.958;2024-01-10T01:09:11;-5.90;99.90
3202;DHT22;34843;48.744;8.958;2024-01-10T01:11:40;-5.80;99.90
3202;DHT22;34843;48.744;8.958;2024-01-10T01:14:06;-5.80;99.90
3202;DHT22;34843;48.744;8.958;2024-01-10T01:16:32;-5.70;99.90
3202;DHT22;34843;48.744;8.958;2024-01-10T01:18:58;-5.70;99.90
3202;DHT22;34843;48.744;8.958;2024-01-10T01:21:23;-5.80;99.90
3202;DHT22;34843;48.744;8.958;2024-01-10T01:23:49;-5.80;99.90
3202;DHT22;34843;48.744;8.958;2024-01-10T01:26:14;-5.80;99.90
3202;DHT22;34843;48.744;8.958;2024-01-10T01:28:40;-5.70;99.90
3202;DHT22;34843;48.744;8.958;2024-01-10T01:31:05;-5.60;99.90
3202;DHT22;34843;48.744;8.958;2024-01-10T01:33:32;-5.50;99.90
3202;DHT22;34843;48.744;8.958;2024-01-10T01:35:57;-5.50;99.90
3202;DHT22;34843;48.744;8.958;2024-01-10T01:38:23;-5.40;99.90
3202;DHT22;34843;48.744;8.958;2024-01-10T01:40:49;-5.40;99.90
3202;DHT22;34843;48.744;8.958;2024-01-10T01:43:25;-5.40;99.90
3202;DHT22;34843;48.744;8.958;2024-01-10T01:45:53;-5.40;99.90
3202;DHT22;34843;48.744;8.958;2024-01-10T01:48:20;-5.40;99.90
3202;DHT22;34843;48.744;8.958;2024-01-10T01:50:49;-5.40;99.90
3202;DHT22;34843;48.744;8.958;2024-01-10T01:53:15;-5.40;99.90
3202;DHT22;34843;48.744;8.958;2024-01-10T01:55:42;-5.30;99.90
3202;DHT22;34843;48.744;8.958;2024-01-10T01:58:08;-5.30;99.90
3202;DHT22;34843;48.744;8.958;2024-01-10T02:00:34;-5.30;99.90
3202;DHT22;34843;48.744;8.958;2024-01-10T02:03:00;-5.40;99.90
3202;DHT22;34843;48.744;8.958;2024-01-10T02:05:26;-5.30;99.90
3202;DHT22;34843;48.744;8.958;2024-01-10T02:07:52;-5.30;99.90
3202;DHT22;34843;48.744;8.958;2024-01-10T02:10:19;-5.20;99.90
3202;DHT22;34843;48.744;8.958;2024-01-10T02:12:45;-5.10;99.90
3202;DHT22;34843;48.744;8.958;2024-01-10T02:15:11;-5.00;99.90
3202;DHT22;34843;48.744;8.958;2024-01-10T02:17:37;-5.00;99.90
3202;DHT22;34843;48.744;8.958;2024-01-10T02:20:13;-5.00;99.90
3202;DHT22;34843;48.744;8.958;2024-01-10T02:22:39;-5.10;99.90
3202;DHT22;34843;48.744;8.958;2024-01-10T02:25:09;-5.10;99.90
3202;DHT22;34843;48.744;8.958;2024-01-10T02:27:36;-5.10;99.90
3202;DHT22;34843;48.744;8.958;2024-01-10T02:30:04;-5.20;99.90
3202;DHT22;34843;48.744;8.958;2024-01-10T02:32:30;-5.30;99.90
3202;DHT22;34843;48.744;8.958;2024-01-10T02:34:56;-5.40;99.90
3202;DHT22;34843;48.744;8.958;2024-01-10T02:37:22;-5.50;99.90
3202;DHT22;34843;48.744;8.958;2024-01-10T02:39:47;-5.50;99.90
3202;DHT22;34843;48.744;8.958;2024-01-10T02:42:13;-5.60;99.90
3202;DHT22;34843;48.744;8.958;2024-01-10T02:44:38;-5.60;99.90
3202;DHT22;34843;48.744;8.958;2024-01-10T02:47:05;-5.60;99.90
3202;DHT22;34843;48.744;8.958;2024-01-10T02:49:30;-5.50;99.90
3202;DHT22;34843;48.744;8.958;2024-01-10T02:51:56;-5.50;99.90
3202;DHT22;34843;48.744;8.958;2024-01-10T02:54:21;-5.50;99.90
3202;DHT22;34843;48.744;8.958;2024-01-10T02:56:46;-5.50;99.90
3202;DHT22;34843;48.744;8.958;2024-01-10T02:59:12;-5.50;99.90
3202;DHT22;34843;48.744;8.958;2024-01-10T03:01:37;-5.30;99.90
3202;DHT22;34843;48.744;8.958;2024-01-10T03:04:03;-5.20;99.90
3202;DHT22;34843;48.744;8.958;2024-01-10T03:06:28;-5.20;99.90
3202;DHT22;34843;48.744;8.958;2024-01-10T03:08:55;-5.10;99.90
3202;DHT22;34843;48.744;8.958;2024-01-10T03:11:21;-5.10;99.90
3202;DHT22;34843;48.744;8.958;2024-01-10T03:13:47;-5.10;99.90
3202;DHT22;34843;48.744;8.958;2024-01-10T03:16:13;-5.00;99.90
3202;DHT22;34843;48.744;8.958;2024-01-10T03:18:38;-4.90;99.90
3202;DHT22;34843;48.744;8.958;2024-01-10T03:21:04;-4.90;99.90
3202;DHT22;34843;48.744;8.958;2024-01-10T03:23:30;-4.90;99.90
3202;DHT22;34843;48.744;8.958;2024-01-10T03:25:58;-4.90;99.90
3202;DHT22;34843;48.744;8.958;2024-01-10T03:28:24;-4.80;99.90
3202;DHT22;34843;48.744;8.958;2024-01-10T03:30:49;-4.90;99.90
3202;DHT22;34843;48.744;8.958;2024-01-10T03:33:15;-4.90;99.90
3202;DHT22;34843;48.744;8.958;2024-01-10T03:35:41;-5.00;99.90
3202;DHT22;34843;48.744;8.958;2024-01-10T03:38:07;-5.10;99.90
3202;DHT22;34843;48.744;8.958;2024-01-10T03:40:33;-5.10;99.90
3202;DHT22;34843;48.744;8.958;2024-01-10T03:42:58;-5.10;99.90
3202;DHT22;34843;48.744;8.958;2024-01-10T03:45:24;-5.00;99.90
3202;DHT22;34843;48.744;8.958;2024-01-10T03:47:50;-5.00;99.90
3202;DHT22;34843;48.744;8.958;2024-01-10T03:50:18;-5.00;99.90
3202;DHT22;34843;48.744;8.958;2024-01-10T03:52:44;-5.10;99.90
3202;DHT22;34843;48.744;8.958;2024-01-10T03:55:11;-5.00;99.90
3202;DHT22;34843;48.744;8.958;2024-01-10T03:57:38;-4.90;99.90
3202;DHT22;34843;48.744;8.958;2024-01-10T04:00:04;-4.80;99.90
3202;DHT22;34843;48.744;8.958;2024-01-10T04:02:31;-4.80;99.90
3202;DHT22;34843;48.744;8.958;2024-01-10T04:04:57;-4.80;99.90
3202;DHT22;34843;48.744;8.958;2024-01-10T04:07:22;-4.70;99.90
3202;DHT22;34843;48.744;8.958;2024-01-10T04:09:48;-4.70;99.90
3202;DHT22;34843;48.744;8.958;2024-01-10T04:12:13;-4.70;99.90
3202;DHT22;34843;48.744;8.958;2024-01-10T04:14:39;-4.60;99.90
3202;DHT22;34843;48.744;8.958;2024-01-10T04:17:04;-4.60;99.90
3202;DHT22;34843;48.744;8.958;2024-01-10T04:19:32;-4.60;99.90
3202;DHT22;34843;48.744;8.958;2024-01-10T04:21:58;-4.60;99.90
3202;DHT22;34843;48.744;8.958;2024-01-10T04:24:23;-4.50;99.90
3202;DHT22;34843;48.744;8.958;2024-01-10T04:26:49;-4.30;99.90
3202;DHT22;34843;48.744;8.958;2024-01-10T04:29:14;-4.40;99.90
3202;DHT22;34843;48.744;8.958;2024-01-10T04:31:40;-4.40;99.90
3202;DHT22;34843;48.744;8.958;2024-01-10T04:34:06;-4.30;99.90
3202;DHT22;34843;48.744;8.958;2024-01-10T04:36:31;-4.30;99.90
3202;DHT22;34843;48.744;8.958;2024-01-10T04:38:57;-4.20;99.90
3202;DHT22;34843;48.744;8.958;2024-01-10T04:41:22;-4.20;99.90
3202;DHT22;34843;48.744;8.958;2024-01-10T04:43:48;-4.20;99.90
3202;DHT22;34843;48.744;8.958;2024-01-10T04:46:13;-4.20;99.90
3202;DHT22;34843;48.744;8.958;2024-01-10T04:48:39;-4.20;99.90
3202;DHT22;34843;48.744;8.958;2024-01-10T04:51:05;-4.30;99.90
3202;DHT22;34843;48.744;8.958;2024-01-10T04:53:30;-4.30;99.90
3202;DHT22;34843;48.744;8.958;2024-01-10T04:55:55;-4.30;99.90
3202;DHT22;34843;48.744;8.958;2024-01-10T04:58:21;-4.30;99.90
3202;DHT22;34843;48.744;8.958;2024-01-10T05:00:47;-4.40;99.90
3202;DHT22;34843;48.744;8.958;2024-01-10T05:03:12;-4.40;99.90
3202;DHT22;34843;48.744;8.958;2024-01-10T05:05:38;-4.40;99.90
3202;DHT22;34843;48.744;8.958;2024-01-10T05:08:03;-4.40;99.90
3202;DHT22;34843;48.744;8.958;2024-01-10T05:10:29;-4.50;99.90
3202;DHT22;34843;48.744;8.958;2024-01-10T05:12:55;-4.50;99.90
3202;DHT22;34843;48.744;8.958;2024-01-10T05:15:20;-4.50;99.90
3202;DHT22;34843;48.744;8.958;2024-01-10T05:17:45;-4.50;99.90
3202;DHT22;34843;48.744;8.958;2024-01-10T05:20:11;-4.60;99.90
3202;DHT22;34843;48.744;8.958;2024-01-10T05:22:36;-4.60;99.90
3202;DHT22;34843;48.744;8.958;2024-01-10T05:25:02;-4.60;99.90
3202;DHT22;34843;48.744;8.958;2024-01-10T05:27:29;-4.60;99.90
3202;DHT22;34843;48.744;8.958;2024-01-10T05:29:54;-4.60;99.90
3202;DHT22;34843;48.744;8.958;2024-01-10T05:32:20;-4.60;99.90
3202;DHT22;34843;48.744;8.958;2024-01-10T05:34:45;-4.70;99.90
3202;DHT22;34843;48.744;8.958;2024-01-10T05:37:11;-4.60;99.90
3202;DHT22;34843;48.744;8.958;2024-01-10T05:39:36;-4.80;99.90
3202;DHT22;34843;48.744;8.958;2024-01-10T05:42:02;-4.80;99.90
3202;DHT22;34843;48.744;8.958;2024-01-10T05:44:28;-4.90;99.90
3202;DHT22;34843;48.744;8.958;2024-01-10T05:46:54;-4.90;99.90
3202;DHT22;34843;48.744;8.958;2024-01-10T05:49:20;-4.90;99.90
3202;DHT22;34843;48.744;8.958;2024-01-10T05:51:45;-4.90;99.90
3202;DHT22;34843;48.744;8.958;2024-01-10T05:54:11;-5.00;99.90
3202;DHT22;34843;48.744;8.958;2024-01-10T05:56:36;-5.00;99.90
3202;DHT22;34843;48.744;8.958;2024-01-10T05:59:02;-4.90;99.90
3202;DHT22;34843;48.744;8.958;2024-01-10T06:01:27;-5.00;99.90
3202;DHT22;34843;48.744;8.958;2024-01-10T06:03:54;-5.10;99.90
3202;DHT22;34843;48.744;8.958;2024-01-10T06:06:19;-5.20;99.90
3202;DHT22;34843;48.744;8.958;2024-01-10T06:08:45;-5.40;99.90
3202;DHT22;34843;48.744;8.958;2024-01-10T06:11:11;-5.40;99.90
3202;DHT22;34843;48.744;8.958;2024-01-10T06:13:36;-5.50;99.90
3202;DHT22;34843;48.744;8.958;2024-01-10T06:16:03;-5.60;99.90
3202;DHT22;34843;48.744;8.958;2024-01-10T06:18:29;-5.60;99.90
3202;DHT22;34843;48.744;8.958;2024-01-10T06:20:54;-5.80;99.90
3202;DHT22;34843;48.744;8.958;2024-01-10T06:23:20;-5.80;99.90
3202;DHT22;34843;48.744;8.958;2024-01-10T06:25:45;-5.80;99.90
3202;DHT22;34843;48.744;8.958;2024-01-10T06:28:11;-5.90;99.90
3202;DHT22;34843;48.744;8.958;2024-01-10T06:30:36;-5.90;99.90
3202;DHT22;34843;48.744;8.958;2024-01-10T06:33:02;-5.90;99.90
3202;DHT22;34843;48.744;8.958;2024-01-10T06:35:27;-6.00;99.90
3202;DHT22;34843;48.744;8.958;2024-01-10T06:37:53;-6.00;99.90
3202;DHT22;34843;48.744;8.958;2024-01-10T06:40:19;-6.00;99.90
3202;DHT22;34843;48.744;8.958;2024-01-10T06:42:47;-6.00;99.90
3202;DHT22;34843;48.744;8.958;2024-01-10T06:45:13;-6.10;99.90
3202;DHT22;34843;48.744;8.958;2024-01-10T06:47:39;-6.10;99.90
3202;DHT22;34843;48.744;8.958;2024-01-10T06:50:05;-6.20;99.90
3202;DHT22;34843;48.744;8.958;2024-01-10T06:52:31;-6.20;99.90
3202;DHT22;34843;48.744;8.958;2024-01-10T06:54:57;-6.30;99.90
3202;DHT22;34843;48.744;8.958;2024-01-10T06:57:22;-6.30;99.90
3202;DHT22;34843;48.744;8.958;2024-01-10T06:59:48;-6.40;99.90
3202;DHT22;34843;48.744;8.958;2024-01-10T07:02:14;-6.40;99.90
3202;DHT22;34843;48.744;8.958;2024-01-10T07:04:40;-6.50;99.90
3202;DHT22;34843;48.744;8.958;2024-01-10T07:07:05;-6.50;99.90
3202;DHT22;34843;48.744;8.958;2024-01-10T07:09:33;-6.60;99.90
3202;DHT22;34843;48.744;8.958;2024-01-10T07:11:59;-6.60;99.90
3202;DHT22;34843;48.744;8.958;2024-01-10T07:14:25;-6.60;99.90
3202;DHT22;34843;48.744;8.958;2024-01-10T07:16:50;-6.60;99.90
3202;DHT22;34843;48.744;8.958;2024-01-10T07:19:17;-6.70;99.90
3202;DHT22;34843;48.744;8.958;2024-01-10T07:21:43;-6.70;99.90
3202;DHT22;34843;48.744;8.958;2024-01-10T07:24:09;-6.70;99.90
3202;DHT22;34843;48.744;8.958;2024-01-10T07:26:36;-6.70;99.90
3202;DHT22;34843;48.744;8.958;2024-01-10T07:29:02;-6.70;99.90
3202;DHT22;34843;48.744;8.958;2024-01-10T07:31:28;-6.70;99.90
3202;DHT22;34843;48.744;8.958;2024-01-10T07:33:55;-6.70;99.90
3202;DHT22;34843;48.744;8.958;2024-01-10T07:36:23;-6.70;99.90
3202;DHT22;34843;48.744;8.958;2024-01-10T07:38:48;-6.60;99.90
3202;DHT22;34843;48.744;8.958;2024-01-10T07:41:14;-6.60;99.90
3202;DHT22;34843;48.744;8.958;2024-01-10T07:43:39;-6.60;99.90
3202;DHT22;34843;48.744;8.958;2024-01-10T07:46:05;-6.60;99.90
3202;DHT22;34843;48.744;8.958;2024-01-10T07:48:31;-6.60;99.90
3202;DHT22;34843;48.744;8.958;2024-01-10T07:50:57;-6.40;99.90
3202;DHT22;34843;48.744;8.958;2024-01-10T07:53:22;-6.30;99.90
3202;DHT22;34843;48.744;8.958;2024-01-10T07:55:50;-6.20;99.90
3202;DHT22;34843;48.744;8.958;2024-01-10T07:58:16;-6.20;99.90
3202;DHT22;34843;48.744;8.958;2024-01-10T08:00:42;-6.10;99.90
3202;DHT22;34843;48.744;8.958;2024-01-10T08:03:07;-6.00;99.90
3202;DHT22;34843;48.744;8.958;2024-01-10T08:05:33;-6.10;99.90
3202;DHT22;34843;48.744;8.958;2024-01-10T08:07:59;-6.00;99.90
3202;DHT22;34843;48.744;8.958;2024-01-10T08:10:24;-5.80;99.90
3202;DHT22;34843;48.744;8.958;2024-01-10T08:12:50;-5.70;99.90
3202;DHT22;34843;48.744;8.958;2024-01-10T08:15:18;-5.70;99.90
3202;DHT22;34843;48.744;8.958;2024-01-10T08:17:45;-5.60;99.90
3202;DHT22;34843;48.744;8.958;2024-01-10T08:20:10;-5.50;99.90
3202;DHT22;34843;48.744;8.958;2024-01-10T08:22:36;-5.40;99.90
3202;DHT22;34843;48.744;8.958;2024-01-10T08:25:03;-5.40;99.90
3202;DHT22;34843;48.744;8.958;2024-01-10T08:27:29;-5.30;99.90
3202;DHT22;34843;48.744;8.958;2024-01-10T08:29:54;-5.20;99.90
3202;DHT22;34843;48.744;8.958;2024-01-10T08:32:20;-5.30;99.90
3202;DHT22;34843;48.744;8.958;2024-01-10T08:34:47;-5.30;99.90
3202;DHT22;34843;48.744;8.958;2024-01-10T08:37:14;-5.40;99.90
3202;DHT22;34843;48.744;8.958;2024-01-10T08:39:39;-5.30;99.90
3202;DHT22;34843;48.744;8.958;2024-01-10T08:42:05;-5.30;99.90
3202;DHT22;34843;48.744;8.958;2024-01-10T08:44:30;-5.30;99.90
3202;DHT22;34843;48.744;8.958;2024-01-10T08:46:56;-5.20;99.90
3202;DHT22;34843;48.744;8.958;2024-01-10T08:49:21;-5.10;99.90
3202;DHT22;34843;48.744;8.958;2024-01-10T08:51:47;-5.10;99.90
3202;DHT22;34843;48.744;8.958;2024-01-10T08:54:14;-5.10;99.90
3202;DHT22;34843;48.744;8.958;2024-01-10T08:56:43;-5.10;99.90
3202;DHT22;34843;48.744;8.958;2024-01-10T08:59:11;-5.00;99.90
3202;DHT22;34843;48.744;8.958;2024-01-10T09:01:36;-4.90;99.90
3202;DHT22;34843;48.744;8.958;2024-01-10T09:04:04;-4.80;99.90
3202;DHT22;34843;48.744;8.958;2024-01-10T09:06:31;-4.70;99.90
3202;DHT22;34843;48.744;8.958;2024-01-10T09:08:56;-4.70;99.90
3202;DHT22;34843;48.744;8.958;2024-01-10T09:11:22;-4.70;99.90
3202;DHT22;34843;48.744;8.958;2024-01-10T09:13:47;-4.50;99.90
3202;DHT22;34843;48.744;8.958;2024-01-10T09:16:13;-4.40;99.90
3202;DHT22;34843;48.744;8.958;2024-01-10T09:18:38;-4.30;99.90
3202;DHT22;34843;48.744;8.958;2024-01-10T09:21:05;-4.30;99.90
3202;DHT22;34843;48.744;8.958;2024-01-10T09:23:30;-4.10;99.90
3202;DHT22;34843;48.744;8.958;2024-01-10T09:25:56;-4.10;99.90
3202;DHT22;34843;48.744;8.958;2024-01-10T09:28:22;-4.00;99.90
3202;DHT22;34843;48.744;8.958;2024-01-10T09:30:47;-4.00;99.90
3202;DHT22;34843;48.744;8.958;2024-01-10T09:33:13;-3.90;99.90
3202;DHT22;34843;48.744;8.958;2024-01-10T09:35:38;-3.90;99.90
3202;DHT22;34843;48.744;8.958;2024-01-10T09:38:04;-3.80;99.90
3202;DHT22;34843;48.744;8.958;2024-01-10T09:40:30;-3.70;99.90
3202;DHT22;34843;48.744;8.958;2024-01-10T09:42:55;-3.60;99.90
3202;DHT22;34843;48.744;8.958;2024-01-10T09:45:21;-3.50;99.90
3202;DHT22;34843;48.744;8.958;2024-01-10T09:47:55;-3.40;99.90
3202;DHT22;34843;48.744;8.958;2024-01-10T09:50:21;-3.20;99.90
3202;DHT22;34843;48.744;8.958;2024-01-10T09:53:07;-3.20;99.90
3202;DHT22;34843;48.744;8.958;2024-01-10T09:55:37;-3.10;99.90
3202;DHT22;34843;48.744;8.958;2024-01-10T09:58:06;-3.20;99.90
3202;DHT22;34843;48.744;8.958;2024-01-10T10:00:34;-3.10;99.90
3202;DHT22;34843;48.744;8.958;2024-01-10T10:03:04;-3.00;99.90
3202;DHT22;34843;48.744;8.958;2024-01-10T10:05:30;-2.90;99.90
3202;DHT22;34843;48.744;8.958;2024-01-10T10:07:56;-2.80;99.90
3202;DHT22;34843;48.744;8.958;2024-01-10T10:10:23;-2.80;99.90
3202;DHT22;34843;48.744;8.958;2024-01-10T10:12:51;-3.00;99.90
3202;DHT22;34843;48.744;8.958;2024-01-10T10:15:18;-2.60;99.90
3202;DHT22;34843;48.744;8.958;2024-01-10T10:17:46;-2.50;99.90
3202;DHT22;34843;48.744;8.958;2024-01-10T10:20:23;-2.50;99.90
3202;DHT22;34843;48.744;8.958;2024-01-10T10:23:09;-2.40;99.90
3202;DHT22;34843;48.744;8.958;2024-01-10T10:25:42;-2.20;99.90
3202;DHT22;34843;48.744;8.958;2024-01-10T10:28:08;-2.20;99.90
3202;DHT22;34843;48.744;8.958;2024-01-10T10:30:34;-2.00;99.90
3202;DHT22;34843;48.744;8.958;2024-01-10T10:33:01;-2.00;99.90
3202;DHT22;34843;48.744;8.958;2024-01-10T10:35:26;-2.10;99.90
3202;DHT22;34843;48.744;8.958;2024-01-10T10:37:52;-2.00;99.90
3202;DHT22;34843;48.744;8.958;2024-01-10T10:40:20;-2.00;99.90
3202;DHT22;34843;48.744;8.958;2024-01-10T10:42:47;-2.10;99.90
3202;DHT22;34843;48.744;8.958;2024-01-10T10:45:18;-2.00;99.90
3202;DHT22;34843;48.744;8.958;2024-01-10T10:47:45;-1.90;99.90
3202;DHT22;34843;48.744;8.958;2024-01-10T10:50:22;-1.90;99.90
3202;DHT22;34843;48.744;8.958;2024-01-10T10:52:48;-1.70;99.90
3202;DHT22;34843;48.744;8.958;2024-01-10T10:55:18;-1.60;99.90
3202;DHT22;34843;48.744;8.958;2024-01-10T10:57:48;-1.60;99.90
3202;DHT22;34843;48.744;8.958;2024-01-10T11:00:15;-1.50;99.90
3202;DHT22;34843;48.744;8.958;2024-01-10T11:02:41;-1.50;99.90
3202;DHT22;34843;48.744;8.958;2024-01-10T11:05:08;-1.40;99.90
3202;DHT22;34843;48.744;8.958;2024-01-10T11:07:41;-1.40;99.90
3202;DHT22;34843;48.744;8.958;2024-01-10T11:10:17;-1.30;99.90
3202;DHT22;34843;48.744;8.958;2024-01-10T11:21:55;-1.50;99.90
3202;DHT22;34843;48.744;8.958;2024-01-10T11:24:23;-1.30;99.90
3202;DHT22;34843;48.744;8.958;2024-01-10T11:26:49;-1.20;99.90
3202;DHT22;34843;48.744;8.958;2024-01-10T11:29:15;-1.10;99.90
3202;DHT22;34843;48.744;8.958;2024-01-10T11:31:41;-1.10;99.90
3202;DHT22;34843;48.744;8.958;2024-01-10T11:34:06;-1.00;99.90
3202;DHT22;34843;48.744;8.958;2024-01-10T11:36:34;-1.00;99.90
3202;DHT22;34843;48.744;8.958;2024-01-10T11:39:03;-1.10;99.90
3202;DHT22;34843;48.744;8.958;2024-01-10T11:41:31;-1.20;99.90
3202;DHT22;34843;48.744;8.958;2024-01-10T11:46:39;-1.20;99.90
3202;DHT22;34843;48.744;8.958;2024-01-10T11:49:11;-1.10;99.90
3202;DHT22;34843;48.744;8.958;2024-01-10T11:51:39;-1.10;99.90
3202;DHT22;34843;48.744;8.958;2024-01-10T11:54:04;-1.00;99.90
3202;DHT22;34843;48.744;8.958;2024-01-10T11:56:41;-0.90;99.90
3202;DHT22;34843;48.744;8.958;2024-01-10T11:59:08;-1.00;99.90
3202;DHT22;34843;48.744;8.958;2024-01-10T12:01:36;-1.00;99.90
3202;DHT22;34843;48.744;8.958;2024-01-10T12:04:03;-0.90;99.90
3202;DHT22;34843;48.744;8.958;2024-01-10T12:06:35;-0.80;99.90
3202;DHT22;34843;48.744;8.958;2024-01-10T12:09:02;-0.80;99.90
3202;DHT22;34843;48.744;8.958;2024-01-10T12:11:35;-0.70;99.90
3202;DHT22;34843;48.744;8.958;2024-01-10T12:14:04;-0.50;99.90
3202;DHT22;34843;48.744;8.958;2024-01-10T12:16:29;-0.50;99.90
3202;DHT22;34843;48.744;8.958;2024-01-10T12:18:55;-0.50;99.90
3202;DHT22;34843;48.744;8.958;2024-01-10T12:21:21;-0.50;99.90
3202;DHT22;34843;48.744;8.958;2024-01-10T12:23:47;-0.40;99.90
3202;DHT22;34843;48.744;8.958;2024-01-10T12:26:13;-0.30;99.90
3202;DHT22;34843;48.744;8.958;2024-01-10T12:28:39;-0.20;99.90
3202;DHT22;34843;48.744;8.958;2024-01-10T12:31:06;-0.10;99.90
3202;DHT22;34843;48.744;8.958;2024-01-10T12:33:37;0.00;99.90
3202;DHT22;34843;48.744;8.958;2024-01-10T12:36:09;0.10;99.90
3202;DHT22;34843;48.744;8.958;2024-01-10T12:38:36;0.20;99.90
3202;DHT22;34843;48.744;8.958;2024-01-10T12:41:02;0.20;99.90
3202;DHT22;34843;48.744;8.958;2024-01-10T12:43:29;0.20;99.90
3202;DHT22;34843;48.744;8.958;2024-01-10T12:46:11;0.20;99.90
3202;DHT22;34843;48.744;8.958;2024-01-10T12:48:37;0.30;99.90
3202;DHT22;34843;48.744;8.958;2024-01-10T12:51:04;0.30;99.90
3202;DHT22;34843;48.744;8.958;2024-01-10T12:53:43;0.30;99.90
3202;DHT22;34843;48.744;8.958;2024-01-10T12:56:10;0.40;99.90
3202;DHT22;34843;48.744;8.958;2024-01-10T12:58:40;0.50;99.90
3202;DHT22;34843;48.744;8.958;2024-01-10T13:01:08;0.60;99.90
3202;DHT22;34843;48.744;8.958;2024-01-10T13:03:34;0.50;99.90
3202;DHT22;34843;48.744;8.958;2024-01-10T13:05:59;0.60;99.90
3202;DHT22;34843;48.744;8.958;2024-01-10T13:08:25;1.00;99.90
3202;DHT22;34843;48.744;8.958;2024-01-10T13:10:51;0.60;99.90
3202;DHT22;34843;48.744;8.958;2024-01-10T13:13:16;0.70;99.90
3202;DHT22;34843;48.744;8.958;2024-01-10T13:15:43;0.70;99.90
3202;DHT22;34843;48.744;8.958;2024-01-10T13:18:10;0.80;99.90
3202;DHT22;34843;48.744;8.958;2024-01-10T13:20:36;0.70;99.90
3202;DHT22;34843;48.744;8.958;2024-01-10T13:23:03;0.70;99.90
3202;DHT22;34843;48.744;8.958;2024-01-10T13:25:29;0.70;99.90
3202;DHT22;34843;48.744;8.958;2024-01-10T13:27:54;0.80;99.90
3202;DHT22;34843;48.744;8.958;2024-01-10T13:32:46;0.80;99.90
3202;DHT22;34843;48.744;8.958;2024-01-10T13:35:15;0.80;99.90
3202;DHT22;34843;48.744;8.958;2024-01-10T13:37:45;0.80;99.90
3202;DHT22;34843;48.744;8.958;2024-01-10T13:40:11;0.90;99.90
3202;DHT22;34843;48.744;8.958;2024-01-10T13:42:40;0.90;99.90
3202;DHT22;34843;48.744;8.958;2024-01-10T13:45:07;1.00;99.90
3202;DHT22;34843;48.744;8.958;2024-01-10T13:47:39;1.00;99.90
3202;DHT22;34843;48.744;8.958;2024-01-10T13:50:05;1.00;99.90
3202;DHT22;34843;48.744;8.958;2024-01-10T13:52:32;1.10;99.90
3202;DHT22;34843;48.744;8.958;2024-01-10T13:54:57;1.10;99.90
3202;DHT22;34843;48.744;8.958;2024-01-10T13:57:23;1.00;99.90
3202;DHT22;34843;48.744;8.958;2024-01-10T13:59:49;1.00;99.90
3202;DHT22;34843;48.744;8.958;2024-01-10T14:02:14;0.90;99.90
3202;DHT22;34843;48.744;8.958;2024-01-10T14:04:42;0.90;99.90
3202;DHT22;34843;48.744;8.958;2024-01-10T14:07:07;0.90;99.90
3202;DHT22;34843;48.744;8.958;2024-01-10T14:09:33;0.90;99.90
3202;DHT22;34843;48.744;8.958;2024-01-10T14:12:00;0.80;99.90
3202;DHT22;34843;48.744;8.958;2024-01-10T14:14:25;0.70;99.90
3202;DHT22;34843;48.744;8.958;2024-01-10T14:16:51;0.60;99.90
3202;DHT22;34843;48.744;8.958;2024-01-10T14:19:16;0.50;99.90
3202;DHT22;34843;48.744;8.958;2024-01-10T14:21:44;0.40;99.90
3202;DHT22;34843;48.744;8.958;2024-01-10T14:24:11;0.20;99.90
3202;DHT22;34843;48.744;8.958;2024-01-10T14:26:36;0.10;99.90
3202;DHT22;34843;48.744;8.958;2024-01-10T14:29:02;0.00;99.90
3202;DHT22;34843;48.744;8.958;2024-01-10T14:31:28;0.00;99.90
3202;DHT22;34843;48.744;8.958;2024-01-10T14:33:53;0.00;99.90
3202;DHT22;34843;48.744;8.958;2024-01-10T14:36:19;0.00;99.90
3202;DHT22;34843;48.744;8.958;2024-01-10T14:38:45;0.00;99.90
3202;DHT22;34843;48.744;8.958;2024-01-10T14:41:10;0.00;99.90
3202;DHT22;34843;48.744;8.958;2024-01-10T14:43:36;0.00;99.90
3202;DHT22;34843;48.744;8.958;2024-01-10T14:46:03;-0.10;99.90
3202;DHT22;34843;48.744;8.958;2024-01-10T14:48:29;-0.10;99.90
3202;DHT22;34843;48.744;8.958;2024-01-10T14:50:54;-0.10;99.90
3202;DHT22;34843;48.744;8.958;2024-01-10T14:53:20;-0.20;99.90
3202;DHT22;34843;48.744;8.958;2024-01-10T14:55:45;-0.20;99.90
3202;DHT22;34843;48.744;8.958;2024-01-10T14:58:11;-0.20;99.90
3202;DHT22;34843;48.744;8.958;2024-01-10T15:00:36;-0.20;99.90
3202;DHT22;34843;48.744;8.958;2024-01-10T15:03:02;-0.20;99.90
3202;DHT22;34843;48.744;8.958;2024-01-10T15:05:29;-0.30;99.90
3202;DHT22;34843;48.744;8.958;2024-01-10T15:07:55;-0.30;99.90
3202;DHT22;34843;48.744;8.958;2024-01-10T15:10:20;-0.30;99.90
3202;DHT22;34843;48.744;8.958;2024-01-10T15:12:46;-0.30;99.90
3202;DHT22;34843;48.744;8.958;2024-01-10T15:15:11;-0.40;99.90
3202;DHT22;34843;48.744;8.958;2024-01-10T15:17:37;-0.50;99.90
3202;DHT22;34843;48.744;8.958;2024-01-10T15:20:03;-0.50;99.90
3202;DHT22;34843;48.744;8.958;2024-01-10T15:22:28;-0.60;99.90
3202;DHT22;34843;48.744;8.958;2024-01-10T15:24:54;-0.60;99.90
3202;DHT22;34843;48.744;8.958;2024-01-10T15:27:20;-0.70;99.90
3202;DHT22;34843;48.744;8.958;2024-01-10T15:29:45;-0.80;99.90
3202;DHT22;34843;48.744;8.958;2024-01-10T15:32:11;-0.90;99.90
3202;DHT22;34843;48.744;8.958;2024-01-10T15:34:37;-1.00;99.90
3202;DHT22;34843;48.744;8.958;2024-01-10T15:37:03;-1.10;99.90
3202;DHT22;34843;48.744;8.958;2024-01-10T15:39:29;-1.10;99.90
3202;DHT22;34843;48.744;8.958;2024-01-10T15:41:54;-1.20;99.90
3202;DHT22;34843;48.744;8.958;2024-01-10T15:44:21;-1.30;99.90
3202;DHT22;34843;48.744;8.958;2024-01-10T15:46:46;-1.40;99.90
3202;DHT22;34843;48.744;8.958;2024-01-10T15:49:12;-1.40;99.90
3202;DHT22;34843;48.744;8.958;2024-01-10T15:51:37;-1.60;99.90
3202;DHT22;34843;48.744;8.958;2024-01-10T15:54:03;-1.70;99.90
3202;DHT22;34843;48.744;8.958;2024-01-10T15:56:29;-1.80;99.90